createdAt,value
2023-01-05T00:01:45.608Z,6.20
2023-01-05T00:04:14.970Z,5.78
2023-01-05T00:06:43.441Z,5.80
2023-01-05T00:09:14.215Z,5.78
2023-01-05T00:11:59.318Z,5.80
2023-01-05T00:14:47.197Z,6.30
2023-01-05T00:17:35.037Z,6.10
2023-01-05T00:20:23.630Z,5.60
2023-01-05T00:22:53.474Z,5.70
2023-01-05T00:25:23.315Z,5.93
2023-01-05T00:27:53.674Z,5.68
2023-01-05T00:30:23.251Z,5.78
2023-01-05T00:32:51.428Z,6.40
2023-01-05T00:35:24.101Z,6.57
2023-01-05T00:37:52.496Z,5.85
2023-01-05T00:40:22.279Z,5.97
2023-01-05T00:42:50.299Z,5.95
2023-01-05T00:45:20.447Z,6.10
2023-01-05T00:47:48.563Z,6.43
2023-01-05T00:50:18.377Z,5.72
2023-01-05T00:52:48.167Z,6.28
2023-01-05T00:55:16.563Z,6.55
2023-01-05T00:57:45.360Z,5.90
2023-01-05T01:00:16.547Z,6.03
2023-01-05T01:02:46.116Z,6.20
2023-01-05T01:05:15.336Z,6.20
2023-01-05T01:07:43.355Z,5.68
2023-01-05T01:10:13.402Z,6.05
2023-01-05T01:15:09.563Z,5.78
2023-01-05T01:17:37.586Z,5.88
2023-01-05T01:20:06.859Z,6.20
2023-01-05T01:22:34.688Z,6.18
2023-01-05T01:25:02.529Z,5.45
2023-01-05T01:27:32.679Z,5.88
2023-01-05T01:30:00.557Z,6.07
2023-01-05T01:32:28.331Z,5.95
2023-01-05T01:34:56.202Z,6.38
2023-01-05T01:37:24.004Z,5.45
2023-01-05T01:39:51.846Z,5.55
2023-01-05T01:42:19.941Z,5.82
2023-01-05T01:45:16.840Z,5.45
2023-01-05T01:47:48.453Z,5.45
2023-01-05T01:50:20.928Z,5.70
2023-01-05T01:52:52.138Z,6.10
2023-01-05T01:55:21.013Z,5.43
2023-01-05T01:57:49.795Z,5.50
2023-01-05T02:00:21.588Z,5.78
2023-01-05T02:02:51.103Z,5.20
2023-01-05T02:05:21.261Z,5.13
2023-01-05T02:07:49.772Z,6.25
2023-01-05T02:10:22.521Z,5.97
2023-01-05T02:13:03.723Z,5.95
2023-01-05T02:15:42.962Z,5.75
2023-01-05T02:18:23.698Z,5.60
2023-01-05T02:21:30.609Z,5.43
2023-01-05T02:24:34.552Z,5.93
2023-01-05T02:27:34.068Z,6.30
2023-01-05T02:30:44.829Z,5.57
2023-01-05T02:33:25.106Z,5.80
2023-01-05T02:35:59.935Z,5.68
2023-01-05T02:38:35.308Z,5.53
2023-01-05T02:41:12.459Z,5.60
2023-01-05T02:43:40.298Z,5.70
2023-01-05T02:46:08.431Z,5.68
2023-01-05T02:48:38.930Z,5.32
2023-01-05T02:51:11.968Z,5.93
2023-01-05T02:53:44.148Z,5.20
2023-01-05T02:56:17.158Z,6.50
2023-01-05T02:58:48.841Z,6.25
2023-01-05T03:01:23.740Z,5.38
2023-01-05T03:03:57.405Z,6.32
2023-01-05T03:06:28.668Z,5.05
2023-01-05T03:09:00.833Z,5.45
2023-01-05T03:11:54.820Z,5.85
2023-01-05T03:14:28.716Z,5.72
2023-01-05T03:16:59.194Z,5.65
2023-01-05T03:19:40.456Z,5.47
2023-01-05T03:22:32.325Z,5.60
2023-01-05T03:25:17.846Z,5.05
2023-01-05T03:28:05.775Z,5.90
2023-01-05T03:30:57.736Z,5.93
2023-01-05T03:33:52.349Z,4.57
2023-01-05T03:36:28.989Z,5.60
2023-01-05T03:39:00.377Z,6.20
2023-01-05T03:41:28.704Z,6.38
2023-01-05T03:43:57.855Z,6.25
2023-01-05T03:46:25.712Z,6.65
2023-01-05T03:48:54.053Z,6.22
2023-01-05T03:51:23.239Z,6.35
2023-01-05T03:53:51.062Z,6.55
2023-01-05T03:56:18.863Z,6.57
2023-01-05T03:58:46.953Z,5.30
2023-01-05T04:01:14.765Z,6.30
2023-01-05T04:03:42.601Z,6.78
2023-01-05T04:06:10.457Z,6.85
2023-01-05T04:08:39.653Z,5.63
2023-01-05T04:11:18.625Z,5.82
2023-01-05T04:13:46.842Z,6.53
2023-01-05T04:16:15.286Z,6.32
2023-01-05T04:18:43.373Z,6.55
2023-01-05T04:21:11.344Z,5.80
2023-01-05T04:23:40.711Z,5.97
2023-01-05T04:26:08.588Z,6.60
2023-01-05T04:28:36.466Z,6.00
2023-01-05T04:31:04.378Z,5.57
2023-01-05T04:33:32.227Z,6.05
2023-01-05T04:36:00.262Z,6.97
2023-01-05T04:38:28.051Z,6.50
2023-01-05T04:40:57.297Z,6.57
2023-01-05T04:43:25.346Z,6.60
2023-01-05T04:45:53.212Z,7.22
2023-01-05T04:48:20.978Z,6.43
2023-01-05T04:50:54.409Z,5.97
2023-01-05T04:53:23.516Z,6.47
2023-01-05T04:55:52.005Z,5.93
2023-01-05T04:58:21.227Z,6.35
2023-01-05T05:00:49.860Z,6.10
2023-01-05T05:03:18.523Z,6.95
2023-01-05T05:05:46.455Z,5.32
2023-01-05T05:08:15.091Z,5.72
2023-01-05T05:10:45.116Z,6.47
2023-01-05T05:13:13.042Z,6.20
2023-01-05T05:15:42.373Z,6.00
2023-01-05T05:18:10.166Z,6.03
2023-01-05T05:20:39.150Z,5.88
2023-01-05T05:23:07.347Z,5.40
2023-01-05T05:25:35.157Z,6.43
2023-01-05T05:28:02.984Z,6.10
2023-01-05T05:30:30.788Z,6.45
2023-01-05T05:32:59.984Z,6.10
2023-01-05T05:35:27.854Z,6.60
2023-01-05T05:37:56.799Z,7.03
2023-01-05T05:40:26.335Z,7.03
2023-01-05T05:42:54.286Z,6.95
2023-01-05T05:45:22.230Z,6.78
2023-01-05T05:47:50.062Z,6.70
2023-01-05T05:50:19.385Z,6.45
2023-01-05T05:52:47.175Z,6.55
2023-01-05T05:55:15.234Z,6.88
2023-01-05T05:57:43.078Z,6.60
2023-01-05T06:00:12.186Z,7.20
2023-01-05T06:02:40.726Z,6.25
2023-01-05T06:05:10.266Z,5.53
2023-01-05T06:07:39.776Z,5.93
2023-01-05T06:10:09.071Z,6.65
2023-01-05T06:12:37.404Z,7.28
2023-01-05T06:15:06.700Z,6.82
2023-01-05T06:17:34.839Z,5.82
2023-01-05T06:20:03.053Z,6.10
2023-01-05T06:22:30.903Z,6.85
2023-01-05T06:25:00.066Z,7.07
2023-01-05T06:27:27.972Z,6.50
2023-01-05T06:29:57.827Z,6.95
2023-01-05T06:32:25.687Z,6.97
2023-01-05T06:34:53.470Z,7.05
2023-01-05T06:37:21.740Z,6.65
2023-01-05T06:39:49.779Z,6.35
2023-01-05T06:42:23.267Z,6.68
2023-01-05T06:44:51.721Z,6.90
2023-01-05T06:47:20.090Z,7.00
2023-01-05T06:49:48.028Z,6.82
2023-01-05T06:52:16.749Z,6.88
2023-01-05T06:54:45.016Z,7.78
2023-01-05T06:57:15.290Z,7.40
2023-01-05T06:59:44.469Z,7.05
2023-01-05T07:02:15.622Z,7.90
2023-01-05T07:04:46.089Z,8.10
2023-01-05T07:07:14.342Z,7.15
2023-01-05T07:09:42.474Z,7.03
2023-01-05T07:12:10.305Z,6.82
2023-01-05T07:14:38.417Z,6.97
2023-01-05T07:17:07.699Z,7.55
2023-01-05T07:19:35.607Z,6.72
2023-01-05T07:22:03.951Z,7.45
2023-01-05T07:24:31.712Z,7.55
2023-01-05T07:27:03.080Z,6.35
2023-01-05T07:29:35.478Z,6.82
2023-01-05T07:32:03.348Z,7.43
2023-01-05T07:34:32.615Z,7.65
2023-01-05T07:37:00.511Z,6.90
2023-01-05T07:39:28.352Z,7.53
2023-01-05T07:41:56.147Z,7.80
2023-01-05T07:44:23.953Z,6.85
2023-01-05T07:46:51.679Z,6.82
2023-01-05T07:49:19.434Z,6.65
2023-01-05T07:51:48.613Z,7.13
2023-01-05T07:54:16.452Z,7.40
2023-01-05T07:56:44.181Z,6.90
2023-01-05T07:59:11.918Z,7.32
2023-01-05T08:01:39.766Z,7.15
2023-01-05T08:04:07.632Z,6.85
2023-01-05T08:06:35.455Z,7.57
2023-01-05T08:09:25.224Z,7.05
2023-01-05T08:11:53.041Z,7.80
2023-01-05T08:14:21.097Z,7.22
2023-01-05T08:16:48.902Z,7.25
2023-01-05T08:19:16.693Z,7.47
2023-01-05T08:21:44.456Z,7.60
2023-01-05T08:24:13.872Z,8.95
2023-01-05T08:26:41.880Z,7.55
2023-01-05T08:29:09.705Z,6.65
2023-01-05T08:31:39.902Z,6.97
2023-01-05T08:34:07.679Z,7.18
2023-01-05T08:36:37.753Z,7.55
2023-01-05T08:39:05.569Z,6.53
2023-01-05T08:41:36.834Z,6.35
2023-01-05T08:44:06.311Z,7.35
2023-01-05T08:46:35.993Z,6.88
2023-01-05T08:49:07.729Z,6.95
2023-01-05T08:51:35.887Z,6.88
2023-01-05T08:54:03.870Z,7.38
2023-01-05T08:56:38.030Z,7.13
2023-01-05T08:59:08.761Z,6.75
2023-01-05T09:01:37.371Z,7.22
2023-01-05T09:04:05.460Z,7.43
2023-01-05T09:06:33.716Z,7.13
2023-01-05T09:09:01.562Z,7.38
2023-01-05T09:11:29.378Z,7.68
2023-01-05T09:13:59.403Z,7.47
2023-01-05T09:19:18.320Z,7.60
2023-01-05T09:21:46.201Z,6.65
2023-01-05T09:24:14.357Z,7.38
2023-01-05T09:26:42.246Z,7.70
2023-01-05T09:29:10.844Z,7.03
2023-01-05T09:31:41.729Z,7.57
2023-01-05T09:34:10.034Z,7.47
2023-01-05T09:36:39.075Z,7.65
2023-01-05T09:39:07.246Z,7.78
2023-01-05T09:41:38.298Z,7.38
2023-01-05T09:44:12.351Z,7.15
2023-01-05T09:46:45.682Z,7.40
2023-01-05T09:49:16.114Z,7.53
2023-01-05T09:51:44.842Z,7.32
2023-01-05T09:54:18.041Z,7.07
2023-01-05T09:59:39.434Z,7.72
2023-01-05T10:02:29.531Z,6.90
2023-01-05T10:04:59.339Z,7.90
2023-01-05T10:07:35.980Z,7.32
2023-01-05T10:10:10.081Z,7.85
2023-01-05T10:13:03.280Z,7.97
2023-01-05T10:15:39.759Z,7.22
2023-01-05T10:18:15.291Z,7.45
2023-01-05T10:20:55.727Z,7.45
2023-01-05T10:23:36.373Z,7.18
2023-01-05T10:26:11.289Z,6.57
2023-01-05T10:28:43.617Z,7.18
2023-01-05T10:31:21.124Z,8.00
2023-01-05T10:33:56.770Z,7.93
2023-01-05T10:37:08.394Z,7.85
2023-01-05T10:40:00.498Z,7.78
2023-01-05T10:42:41.869Z,7.60
2023-01-05T10:45:12.884Z,7.35
2023-01-05T10:47:42.328Z,7.18
2023-01-05T10:50:33.687Z,7.80
2023-01-05T10:53:05.997Z,7.20
2023-01-05T10:55:33.898Z,8.00
2023-01-05T10:58:01.712Z,7.25
2023-01-05T11:00:44.484Z,7.10
2023-01-05T11:03:16.228Z,6.72
2023-01-05T11:05:49.327Z,6.57
2023-01-05T11:08:19.531Z,7.38
2023-01-05T11:10:55.812Z,6.80
2023-01-05T11:13:34.436Z,6.93
2023-01-05T11:16:09.444Z,7.22
2023-01-05T11:18:50.805Z,7.90
2023-01-05T11:21:22.307Z,7.40
2023-01-05T11:23:51.584Z,6.93
2023-01-05T11:26:49.261Z,7.55
2023-01-05T11:29:17.397Z,7.32
2023-01-05T11:31:49.712Z,7.78
2023-01-05T11:34:36.833Z,7.32
2023-01-05T11:37:14.408Z,7.75
2023-01-05T11:39:48.862Z,6.93
2023-01-05T11:42:24.955Z,6.97
2023-01-05T11:44:56.883Z,7.72
2023-01-05T11:47:36.546Z,8.45
2023-01-05T11:50:18.414Z,8.07
2023-01-05T11:52:50.155Z,8.57
2023-01-05T11:55:31.375Z,6.68
2023-01-05T11:58:14.245Z,7.05
2023-01-05T12:00:55.195Z,8.40
2023-01-05T12:03:47.474Z,7.47
2023-01-05T12:06:30.028Z,5.90
2023-01-05T12:09:07.437Z,7.68
2023-01-05T12:11:45.425Z,6.50
2023-01-05T12:14:29.659Z,6.50
2023-01-05T12:16:58.214Z,6.47
2023-01-05T12:19:52.873Z,6.40
2023-01-05T12:22:37.127Z,6.18
2023-01-05T12:25:21.408Z,7.03
2023-01-05T12:28:08.934Z,6.32
2023-01-05T12:32:48.109Z,6.43
2023-01-05T12:34:02.251Z,6.60
2023-01-05T12:36:45.042Z,7.45
2023-01-05T12:39:32.164Z,6.97
2023-01-05T12:42:16.669Z,5.80
2023-01-05T12:45:00.277Z,6.30
2023-01-05T12:47:45.496Z,6.45
2023-01-05T12:50:24.297Z,5.97
2023-01-05T12:53:00.049Z,5.72
2023-01-05T12:55:39.054Z,6.15
2023-01-05T12:58:15.891Z,5.88
2023-01-05T13:00:48.249Z,6.00
2023-01-05T13:03:23.118Z,7.93
2023-01-05T13:05:58.864Z,9.18
2023-01-05T13:08:34.706Z,7.40
2023-01-05T13:11:05.921Z,9.52
2023-01-05T13:13:39.221Z,7.38
2023-01-05T13:16:14.461Z,7.25
2023-01-05T13:18:48.785Z,7.40
2023-01-05T13:21:17.560Z,8.07
2023-01-05T13:23:50.052Z,9.30
2023-01-05T13:28:50.521Z,5.93
2023-01-05T13:31:36.152Z,6.25
2023-01-05T13:34:25.573Z,6.25
2023-01-05T13:37:12.386Z,5.75
2023-01-05T13:40:00.297Z,7.57
2023-01-05T13:42:53.208Z,7.30
2023-01-05T13:48:44.169Z,5.32
2023-01-05T13:51:48.102Z,5.60
2023-01-05T13:54:21.039Z,6.05
2023-01-05T13:56:50.729Z,5.93
2023-01-05T13:59:46.442Z,6.20
2023-01-05T14:02:29.976Z,5.75
2023-01-05T14:04:58.814Z,6.43
2023-01-05T14:07:28.056Z,6.60
2023-01-05T14:09:58.187Z,6.50
2023-01-05T14:12:41.618Z,10.23
2023-01-05T14:15:35.186Z,8.95
2023-01-05T14:18:05.063Z,7.88
2023-01-05T14:20:49.080Z,8.43
2023-01-05T14:23:50.699Z,6.40
2023-01-05T14:26:18.687Z,7.15
2023-01-05T14:28:49.187Z,6.78
2023-01-05T14:31:47.949Z,6.60
2023-01-05T14:34:20.539Z,6.80
2023-01-05T14:37:04.132Z,6.97
2023-01-05T14:39:43.473Z,9.52
2023-01-05T14:42:21.242Z,8.50
2023-01-05T14:44:52.111Z,8.43
2023-01-05T14:47:35.207Z,8.82
2023-01-05T14:50:06.872Z,8.75
2023-01-05T14:52:54.285Z,10.38
2023-01-05T14:55:37.782Z,8.93
2023-01-05T14:58:37.183Z,9.20
2023-01-05T15:01:19.960Z,7.55
2023-01-05T15:03:51.727Z,8.85
2023-01-05T15:06:30.646Z,9.00
2023-01-05T15:09:16.259Z,13.13
2023-01-05T15:12:06.201Z,14.60
2023-01-05T15:14:52.990Z,13.90
2023-01-05T15:17:48.199Z,14.30
2023-01-05T15:20:50.800Z,9.13
2023-01-05T15:24:00.934Z,10.07
2023-01-05T15:27:00.708Z,11.32
2023-01-05T15:30:13.070Z,11.50
2023-01-05T15:32:44.213Z,10.00
2023-01-05T15:35:17.796Z,11.02
2023-01-05T15:37:47.300Z,10.38
2023-01-05T15:40:30.953Z,10.50
2023-01-05T15:43:03.796Z,12.82
2023-01-05T15:45:33.638Z,12.90
2023-01-05T15:48:09.373Z,10.85
2023-01-05T15:50:45.013Z,12.52
2023-01-05T15:53:25.443Z,11.25
2023-01-05T15:55:53.469Z,9.93
2023-01-05T15:58:25.623Z,18.05
2023-01-05T16:01:05.679Z,11.10
2023-01-05T16:03:35.638Z,10.13
2023-01-05T16:06:08.101Z,10.02
2023-01-05T16:11:09.507Z,10.38
2023-01-05T16:13:42.590Z,10.02
2023-01-05T16:16:42.982Z,8.43
2023-01-05T16:19:26.180Z,8.55
2023-01-05T16:21:58.504Z,9.55
2023-01-05T16:24:30.098Z,9.65
2023-01-05T16:26:58.715Z,9.23
2023-01-05T16:29:37.973Z,9.38
2023-01-05T16:32:06.891Z,9.38
2023-01-05T16:34:34.616Z,9.38
2023-01-05T16:37:05.418Z,11.45
2023-01-05T16:39:36.737Z,11.30
2023-01-05T16:42:24.041Z,10.15
2023-01-05T16:44:57.619Z,9.88
2023-01-05T16:47:37.401Z,9.88
2023-01-05T16:50:55.212Z,10.23
2023-01-05T16:53:25.296Z,10.88
2023-01-05T16:55:55.105Z,10.20
2023-01-05T16:58:36.875Z,11.40
2023-01-05T17:01:27.152Z,10.25
2023-01-05T17:03:55.336Z,10.32
2023-01-05T17:06:26.864Z,10.25
2023-01-05T17:08:56.965Z,10.63
2023-01-05T17:11:27.163Z,8.07
2023-01-05T17:13:56.781Z,7.82
2023-01-05T17:16:26.086Z,8.98
2023-01-05T17:18:54.375Z,13.95
2023-01-05T17:21:25.036Z,9.25
2023-01-05T17:23:54.979Z,11.02
2023-01-05T17:26:24.728Z,9.32
2023-01-05T17:28:58.555Z,8.40
2023-01-05T17:31:28.382Z,9.38
2023-01-05T17:33:56.287Z,10.88
2023-01-05T17:36:30.050Z,11.70
2023-01-05T17:38:58.188Z,12.13
2023-01-05T17:41:26.072Z,12.10
2023-01-05T17:43:53.955Z,11.00
2023-01-05T17:46:25.657Z,9.55
2023-01-05T17:48:54.782Z,8.60
2023-01-05T17:51:22.586Z,7.72
2023-01-05T17:53:50.397Z,7.40
2023-01-05T17:56:19.983Z,8.57
2023-01-05T17:58:49.070Z,8.52
2023-01-05T18:01:17.153Z,9.30
2023-01-05T18:03:45.176Z,9.18
2023-01-05T18:06:14.469Z,13.88
2023-01-05T18:11:10.284Z,10.02
2023-01-05T18:13:38.376Z,10.43
2023-01-05T18:16:10.884Z,11.68
2023-01-05T18:21:10.053Z,12.35
2023-01-05T18:23:39.987Z,17.60
2023-01-05T18:26:09.451Z,18.48
2023-01-05T18:28:38.152Z,15.95
2023-01-05T18:31:11.134Z,13.90
2023-01-05T18:33:38.955Z,15.10
2023-01-05T18:36:08.143Z,19.92
2023-01-05T18:38:35.873Z,67.03
2023-01-05T18:41:05.185Z,22.80
2023-01-05T18:43:34.095Z,22.23
2023-01-05T18:46:02.768Z,31.88
2023-01-05T18:48:31.024Z,22.95
2023-01-05T18:50:58.866Z,23.13
2023-01-05T18:53:26.748Z,25.98
2023-01-05T18:55:54.795Z,15.73
2023-01-05T18:58:24.416Z,17.20
2023-01-05T19:00:52.503Z,21.65
2023-01-05T19:03:20.460Z,24.33
2023-01-05T19:05:48.398Z,24.38
2023-01-05T19:08:16.435Z,26.25
2023-01-05T19:10:44.510Z,25.58
2023-01-05T19:13:12.474Z,29.05
2023-01-05T19:15:44.164Z,31.65
2023-01-05T19:18:12.116Z,19.35
2023-01-05T19:20:40.331Z,20.38
2023-01-05T19:23:08.319Z,28.55
2023-01-05T19:25:36.214Z,48.03
2023-01-05T19:28:04.425Z,21.33
2023-01-05T19:30:34.911Z,23.77
2023-01-05T19:33:04.641Z,21.63
2023-01-05T19:35:37.325Z,23.02
2023-01-05T19:38:05.283Z,38.30
2023-01-05T19:40:33.076Z,24.13
2023-01-05T19:43:05.146Z,21.45
2023-01-05T19:45:32.958Z,21.70
2023-01-05T19:48:00.743Z,18.52
2023-01-05T19:50:29.874Z,27.30
2023-01-05T19:52:57.590Z,19.80
2023-01-05T19:55:25.422Z,20.38
2023-01-05T19:57:53.241Z,18.40
2023-01-05T20:00:21.032Z,23.98
2023-01-05T20:02:48.798Z,19.42
2023-01-05T20:05:17.436Z,16.60
2023-01-05T20:07:48.936Z,29.60
2023-01-05T20:10:16.929Z,18.20
2023-01-05T20:12:44.810Z,21.83
2023-01-05T20:15:13.290Z,23.40
2023-01-05T20:17:42.191Z,21.45
2023-01-05T20:20:12.164Z,18.60
2023-01-05T20:22:40.267Z,24.90
2023-01-05T20:25:10.933Z,20.02
2023-01-05T20:27:39.615Z,20.02
2023-01-05T20:30:08.150Z,28.98
2023-01-05T20:32:37.810Z,19.73
2023-01-05T20:35:06.359Z,18.73
2023-01-05T20:37:34.173Z,16.83
2023-01-05T20:40:03.293Z,18.15
2023-01-05T20:42:32.761Z,16.50
2023-01-05T20:45:01.065Z,18.05
2023-01-05T20:47:31.875Z,17.70
2023-01-05T20:50:05.350Z,19.52
2023-01-05T20:52:36.934Z,23.70
2023-01-05T20:55:05.017Z,19.23
2023-01-05T20:57:34.263Z,20.85
2023-01-05T21:00:04.439Z,20.20
2023-01-05T21:02:32.363Z,19.02
2023-01-05T21:05:01.891Z,21.17
2023-01-05T21:07:29.736Z,22.02
2023-01-05T21:09:57.669Z,19.73
2023-01-05T21:12:25.790Z,20.23
2023-01-05T21:14:55.126Z,20.38
2023-01-05T21:17:23.075Z,12.30
2023-01-05T21:19:51.000Z,11.40
2023-01-05T21:22:19.128Z,10.70
2023-01-05T21:24:47.170Z,9.77
2023-01-05T21:27:19.411Z,9.45
2023-01-05T21:29:47.275Z,7.50
2023-01-05T21:32:16.562Z,7.60
2023-01-05T21:34:45.222Z,5.05
2023-01-05T21:37:13.283Z,5.20
2023-01-05T21:39:41.600Z,4.93
2023-01-05T21:42:31.445Z,4.10
2023-01-05T21:44:59.228Z,5.13
2023-01-05T21:47:28.630Z,5.50
2023-01-05T21:49:59.218Z,4.68
2023-01-05T21:52:44.808Z,3.60
2023-01-05T21:55:26.418Z,4.47
2023-01-05T21:57:54.837Z,3.60
2023-01-05T22:00:23.075Z,3.45
2023-01-05T22:02:52.541Z,2.65
2023-01-05T22:05:21.172Z,3.00
2023-01-05T22:07:49.049Z,3.58
2023-01-05T22:10:17.679Z,2.50
2023-01-05T22:12:49.349Z,3.67
2023-01-05T22:15:17.350Z,8.10
2023-01-05T22:17:47.701Z,5.60
2023-01-05T22:20:17.282Z,3.00
2023-01-05T22:22:45.142Z,2.83
2023-01-05T22:25:13.016Z,2.63
2023-01-05T22:27:40.889Z,2.72
2023-01-05T22:30:09.823Z,2.80
2023-01-05T22:32:37.781Z,2.97
2023-01-05T22:35:06.487Z,2.63
2023-01-05T22:37:36.158Z,3.60
2023-01-05T22:40:04.136Z,2.70
2023-01-05T22:42:32.263Z,2.97
2023-01-05T22:45:00.164Z,3.67
2023-01-05T22:47:28.092Z,31.58
2023-01-05T22:49:56.770Z,5.80
2023-01-05T22:52:25.395Z,5.18
2023-01-05T22:54:54.924Z,7.13
2023-01-05T22:57:23.223Z,7.00
2023-01-05T22:59:50.987Z,10.23
2023-01-05T23:02:18.815Z,10.85
2023-01-05T23:04:46.727Z,13.18
2023-01-05T23:07:17.477Z,12.85
2023-01-05T23:09:45.336Z,11.52
2023-01-05T23:12:15.279Z,14.02
2023-01-05T23:14:43.655Z,13.80
2023-01-05T23:17:12.306Z,12.27
2023-01-05T23:19:40.343Z,10.82
2023-01-05T23:22:10.797Z,12.30
2023-01-05T23:24:39.461Z,12.23
2023-01-05T23:27:07.207Z,11.32
2023-01-05T23:29:36.916Z,10.68
2023-01-05T23:32:05.229Z,11.27
2023-01-05T23:34:32.983Z,10.93
2023-01-05T23:37:00.900Z,10.18
2023-01-05T23:39:29.116Z,10.52
2023-01-05T23:41:56.827Z,12.00
2023-01-05T23:44:24.659Z,11.05
2023-01-05T23:46:54.094Z,10.18
2023-01-05T23:49:21.914Z,9.88
2023-01-05T23:51:49.864Z,7.93
2023-01-05T23:54:17.905Z,7.72
2023-01-05T23:56:46.109Z,7.60
2023-01-05T23:59:14.014Z,7.30
